createdAt,value
2023-01-12T00:02:12.673Z,2.45
2023-01-12T00:04:39.450Z,3.05
2023-01-12T00:07:08.057Z,3.20
2023-01-12T00:09:35.286Z,2.73
2023-01-12T00:12:06.841Z,2.50
2023-01-12T00:14:34.855Z,2.25
2023-01-12T00:17:01.646Z,3.58
2023-01-12T00:19:28.424Z,2.40
2023-01-12T00:22:07.021Z,2.97
2023-01-12T00:24:35.973Z,3.00
2023-01-12T00:27:05.708Z,2.50
2023-01-12T00:29:32.593Z,2.58
2023-01-12T00:32:00.812Z,2.88
2023-01-12T00:34:29.535Z,2.85
2023-01-12T00:36:57.183Z,2.17
2023-01-12T00:39:23.949Z,2.42
2023-01-12T00:42:09.268Z,2.90
2023-01-12T00:44:54.241Z,2.80
2023-01-12T00:47:21.051Z,2.47
2023-01-12T00:49:50.717Z,2.80
2023-01-12T00:52:29.974Z,3.00
2023-01-12T00:54:58.768Z,3.10
2023-01-12T00:57:25.665Z,2.17
2023-01-12T00:59:55.340Z,4.20
2023-01-12T01:02:23.131Z,2.63
2023-01-12T01:04:50.617Z,3.08
2023-01-12T01:07:18.471Z,2.63
2023-01-12T01:09:45.298Z,2.40
2023-01-12T01:12:11.961Z,2.55
2023-01-12T01:14:39.139Z,2.70
2023-01-12T01:17:05.916Z,2.78
2023-01-12T01:19:32.866Z,2.35
2023-01-12T01:21:59.584Z,2.17
2023-01-12T01:24:26.276Z,2.72
2023-01-12T01:26:52.933Z,2.38
2023-01-12T01:29:19.718Z,2.97
2023-01-12T01:31:47.773Z,2.42
2023-01-12T01:34:14.817Z,2.63
2023-01-12T01:36:41.482Z,3.15
2023-01-12T01:39:08.269Z,2.70
2023-01-12T01:41:34.887Z,3.08
2023-01-12T01:44:26.089Z,2.15
2023-01-12T01:47:00.825Z,3.08
2023-01-12T01:49:39.626Z,2.83
2023-01-12T01:52:11.826Z,2.47
2023-01-12T01:54:45.558Z,2.28
2023-01-12T01:57:14.073Z,2.53
2023-01-12T01:59:46.441Z,2.60
2023-01-12T02:02:14.543Z,3.25
2023-01-12T02:04:41.528Z,2.30
2023-01-12T02:07:09.245Z,2.63
2023-01-12T02:09:36.977Z,2.25
2023-01-12T02:12:25.427Z,3.65
2023-01-12T02:15:11.301Z,2.50
2023-01-12T02:17:44.109Z,2.83
2023-01-12T02:20:29.248Z,3.17
2023-01-12T02:23:18.435Z,3.60
2023-01-12T02:26:09.469Z,2.75
2023-01-12T02:28:53.732Z,2.80
2023-01-12T02:31:39.828Z,3.05
2023-01-12T02:34:39.301Z,2.90
2023-01-12T02:40:00.655Z,3.17
2023-01-12T02:42:42.365Z,2.67
2023-01-12T02:45:27.713Z,2.70
2023-01-12T02:48:23.218Z,3.30
2023-01-12T02:51:11.941Z,2.45
2023-01-12T02:53:47.753Z,2.42
2023-01-12T02:56:19.497Z,2.88
2023-01-12T02:58:53.273Z,2.70
2023-01-12T03:01:22.386Z,2.40
2023-01-12T03:03:51.180Z,3.20
2023-01-12T03:06:18.334Z,2.83
2023-01-12T03:08:48.215Z,2.80
2023-01-12T03:11:17.322Z,2.55
2023-01-12T03:13:54.322Z,2.70
2023-01-12T03:16:29.619Z,2.47
2023-01-12T03:19:06.278Z,3.40
2023-01-12T03:21:35.172Z,2.67
2023-01-12T03:24:13.155Z,2.72
2023-01-12T03:26:47.130Z,2.30
2023-01-12T03:29:27.921Z,2.10
2023-01-12T03:31:56.099Z,3.20
2023-01-12T03:34:23.616Z,2.20
2023-01-12T03:37:14.524Z,2.20
2023-01-12T03:40:09.140Z,2.33
2023-01-12T03:42:50.604Z,2.22
2023-01-12T03:45:36.124Z,2.58
2023-01-12T03:48:12.175Z,2.05
2023-01-12T03:50:45.342Z,2.45
2023-01-12T03:53:15.391Z,2.15
2023-01-12T03:55:43.560Z,1.83
2023-01-12T03:58:10.423Z,2.20
2023-01-12T04:00:38.088Z,2.15
2023-01-12T04:03:10.301Z,2.40
2023-01-12T04:05:37.822Z,1.65
2023-01-12T04:08:04.857Z,1.95
2023-01-12T04:10:31.994Z,1.92
2023-01-12T04:12:58.620Z,2.20
2023-01-12T04:15:25.460Z,2.33
2023-01-12T04:17:52.283Z,2.10
2023-01-12T04:20:19.639Z,2.38
2023-01-12T04:22:46.334Z,2.17
2023-01-12T04:25:16.260Z,2.08
2023-01-12T04:27:47.646Z,2.03
2023-01-12T04:30:17.020Z,2.60
2023-01-12T04:32:44.762Z,1.98
2023-01-12T04:35:12.348Z,2.03
2023-01-12T04:37:40.065Z,2.50
2023-01-12T04:40:08.550Z,2.53
2023-01-12T04:42:53.824Z,2.70
2023-01-12T04:45:20.453Z,2.20
2023-01-12T04:47:47.199Z,2.22
2023-01-12T04:50:14.216Z,2.00
2023-01-12T04:52:41.241Z,1.95
2023-01-12T04:55:08.148Z,2.00
2023-01-12T04:57:35.363Z,1.85
2023-01-12T05:00:02.049Z,2.30
2023-01-12T05:02:30.646Z,2.10
2023-01-12T05:04:57.272Z,2.07
2023-01-12T05:07:23.988Z,2.28
2023-01-12T05:10:09.111Z,2.25
2023-01-12T05:12:35.816Z,1.90
2023-01-12T05:15:03.706Z,2.53
2023-01-12T05:17:32.239Z,2.10
2023-01-12T05:20:00.812Z,2.27
2023-01-12T05:22:27.808Z,2.28
2023-01-12T05:24:54.451Z,3.33
2023-01-12T05:27:21.346Z,2.03
2023-01-12T05:29:48.018Z,2.75
2023-01-12T05:32:14.703Z,2.33
2023-01-12T05:34:41.784Z,2.05
2023-01-12T05:37:08.434Z,2.35
2023-01-12T05:39:35.127Z,2.33
2023-01-12T05:42:20.571Z,2.40
2023-01-12T05:44:47.177Z,2.50
2023-01-12T05:47:13.814Z,2.20
2023-01-12T05:49:40.578Z,1.75
2023-01-12T05:52:07.247Z,2.00
2023-01-12T05:54:33.883Z,2.83
2023-01-12T05:57:00.548Z,2.08
2023-01-12T05:59:27.242Z,2.42
2023-01-12T06:01:54.029Z,2.00
2023-01-12T06:04:20.747Z,2.63
2023-01-12T06:06:48.799Z,2.05
2023-01-12T06:09:15.488Z,1.98
2023-01-12T06:12:00.624Z,1.95
2023-01-12T06:14:27.352Z,1.88
2023-01-12T06:16:54.054Z,2.10
2023-01-12T06:19:20.708Z,1.85
2023-01-12T06:21:47.467Z,1.63
2023-01-12T06:24:14.181Z,2.88
2023-01-12T06:26:45.047Z,2.08
2023-01-12T06:29:11.802Z,1.98
2023-01-12T06:31:38.875Z,1.95
2023-01-12T06:34:07.937Z,1.92
2023-01-12T06:36:35.707Z,1.65
2023-01-12T06:39:03.047Z,1.90
2023-01-12T06:41:48.181Z,2.10
2023-01-12T06:44:14.880Z,1.60
2023-01-12T06:46:41.507Z,1.88
2023-01-12T06:49:08.177Z,1.77
2023-01-12T06:51:34.771Z,2.70
2023-01-12T06:54:01.544Z,2.10
2023-01-12T06:56:28.614Z,1.98
2023-01-12T06:58:55.301Z,2.20
2023-01-12T07:01:21.986Z,1.95
2023-01-12T07:03:48.689Z,1.70
2023-01-12T07:06:15.364Z,2.33
2023-01-12T07:08:42.978Z,1.60
2023-01-12T07:11:12.164Z,2.33
2023-01-12T07:13:39.061Z,2.00
2023-01-12T07:16:06.137Z,1.88
2023-01-12T07:18:33.261Z,2.45
2023-01-12T07:21:03.569Z,1.88
2023-01-12T07:23:30.191Z,1.95
2023-01-12T07:25:57.858Z,1.48
2023-01-12T07:28:24.727Z,2.15
2023-01-12T07:30:51.412Z,2.05
2023-01-12T07:33:18.839Z,2.55
2023-01-12T07:35:45.832Z,2.17
2023-01-12T07:38:12.523Z,1.75
2023-01-12T07:40:39.146Z,1.80
2023-01-12T07:43:07.947Z,1.70
2023-01-12T07:45:35.540Z,2.42
2023-01-12T07:48:05.109Z,1.80
2023-01-12T07:50:31.782Z,2.28
2023-01-12T07:53:02.380Z,2.15
2023-01-12T07:55:30.327Z,2.00
2023-01-12T07:57:59.143Z,1.92
2023-01-12T08:00:27.193Z,2.10
2023-01-12T08:02:54.984Z,2.22
2023-01-12T08:05:22.907Z,2.70
2023-01-12T08:07:49.561Z,2.30
2023-01-12T08:10:16.867Z,2.05
2023-01-12T08:12:43.569Z,1.90
2023-01-12T08:15:11.593Z,1.63
2023-01-12T08:17:44.613Z,1.90
2023-01-12T08:20:21.996Z,1.83
2023-01-12T08:22:53.282Z,1.73
2023-01-12T08:25:27.904Z,1.52
2023-01-12T08:27:58.128Z,1.80
2023-01-12T08:30:25.959Z,1.35
2023-01-12T08:32:52.741Z,2.20
2023-01-12T08:35:23.118Z,1.80
2023-01-12T08:37:49.747Z,2.13
2023-01-12T08:40:17.056Z,1.40
2023-01-12T08:42:44.188Z,1.48
2023-01-12T08:45:11.078Z,2.47
2023-01-12T08:47:37.906Z,1.23
2023-01-12T08:50:05.653Z,1.40
2023-01-12T08:52:32.994Z,1.50
2023-01-12T08:54:59.623Z,1.30
2023-01-12T08:57:26.292Z,1.33
2023-01-12T08:59:52.941Z,1.50
2023-01-12T09:02:19.709Z,1.42
2023-01-12T09:04:46.299Z,0.90
2023-01-12T09:07:13.167Z,1.17
2023-01-12T09:09:39.838Z,1.05
2023-01-12T09:12:07.130Z,1.83
2023-01-12T09:14:38.857Z,1.13
2023-01-12T09:17:07.202Z,1.17
2023-01-12T09:19:34.018Z,0.93
2023-01-12T09:22:00.632Z,1.08
2023-01-12T09:24:27.658Z,1.00
2023-01-12T09:26:54.650Z,1.23
2023-01-12T09:29:21.302Z,1.13
2023-01-12T09:31:47.988Z,1.17
2023-01-12T09:34:14.787Z,1.00
2023-01-12T09:36:42.114Z,1.27
2023-01-12T09:39:12.789Z,1.10
2023-01-12T09:42:06.406Z,1.10
2023-01-12T09:45:01.424Z,0.90
2023-01-12T09:47:36.750Z,0.93
2023-01-12T09:50:17.455Z,1.10
2023-01-12T09:52:46.056Z,1.02
2023-01-12T09:55:17.207Z,1.10
2023-01-12T09:57:59.101Z,1.00
2023-01-12T10:00:28.259Z,0.75
2023-01-12T10:03:12.231Z,1.20
2023-01-12T10:05:54.014Z,0.90
2023-01-12T10:08:42.377Z,1.38
2023-01-12T10:11:08.974Z,1.08
2023-01-12T10:13:58.509Z,1.05
2023-01-12T10:16:50.679Z,0.90
2023-01-12T10:19:51.461Z,0.90
2023-01-12T10:22:53.447Z,0.90
2023-01-12T10:25:33.053Z,0.75
2023-01-12T10:28:05.099Z,0.80
2023-01-12T10:30:35.202Z,0.80
2023-01-12T10:33:18.988Z,0.88
2023-01-12T10:36:02.855Z,0.90
2023-01-12T10:38:34.678Z,0.90
2023-01-12T10:41:12.845Z,0.75
2023-01-12T10:43:42.023Z,0.70
2023-01-12T10:46:21.938Z,1.00
2023-01-12T10:48:51.311Z,0.88
2023-01-12T10:51:34.897Z,0.70
2023-01-12T10:54:19.279Z,0.80
2023-01-12T10:56:55.382Z,0.90
2023-01-12T10:59:26.894Z,0.82
2023-01-12T11:01:59.390Z,1.00
2023-01-12T11:04:28.717Z,0.80
2023-01-12T11:06:56.730Z,0.80
2023-01-12T11:09:26.272Z,0.95
2023-01-12T11:12:00.998Z,0.70
2023-01-12T11:14:33.898Z,0.50
2023-01-12T11:17:34.535Z,0.70
2023-01-12T11:20:04.916Z,0.60
2023-01-12T11:22:37.409Z,0.70
2023-01-12T11:25:20.575Z,0.70
2023-01-12T11:27:57.527Z,0.80
2023-01-12T11:30:37.254Z,0.63
2023-01-12T11:33:34.785Z,0.60
2023-01-12T11:36:27.361Z,0.80
2023-01-12T11:39:05.142Z,0.75
2023-01-12T11:41:40.898Z,0.40
2023-01-12T11:44:26.562Z,0.73
2023-01-12T11:47:11.370Z,0.60
2023-01-12T11:49:40.653Z,0.50
2023-01-12T11:52:13.376Z,0.52
2023-01-12T11:54:41.151Z,0.90
2023-01-12T11:57:45.455Z,0.60
2023-01-12T12:00:30.386Z,0.70
2023-01-12T12:03:05.893Z,0.60
2023-01-12T12:05:43.503Z,0.85
2023-01-12T12:08:51.536Z,0.50
2023-01-12T12:11:24.283Z,0.50
2023-01-12T12:14:06.145Z,0.50
2023-01-12T12:17:08.119Z,0.60
2023-01-12T12:19:56.439Z,0.60
2023-01-12T12:22:25.949Z,0.60
2023-01-12T12:27:33.440Z,0.70
2023-01-12T12:30:25.665Z,0.50
2023-01-12T12:32:55.855Z,0.70
2023-01-12T12:36:09.187Z,0.60
2023-01-12T12:39:26.487Z,0.60
2023-01-12T12:42:27.244Z,0.65
2023-01-12T12:45:21.799Z,0.50
2023-01-12T12:48:03.703Z,0.70
2023-01-12T12:50:52.953Z,0.70
2023-01-12T12:53:29.851Z,0.57
2023-01-12T12:55:59.617Z,0.65
2023-01-12T12:58:29.237Z,0.77
2023-01-12T13:01:21.923Z,0.50
2023-01-12T13:03:51.265Z,0.45
2023-01-12T13:06:38.204Z,0.60
2023-01-12T13:09:05.727Z,0.50
2023-01-12T13:11:54.075Z,0.60
2023-01-12T13:14:32.048Z,0.60
2023-01-12T13:17:24.806Z,0.50
2023-01-12T13:20:24.749Z,0.60
2023-01-12T13:22:52.412Z,0.68
2023-01-12T13:25:24.842Z,0.55
2023-01-12T13:27:55.705Z,0.50
2023-01-12T13:30:30.362Z,0.47
2023-01-12T13:33:24.249Z,0.40
2023-01-12T13:35:50.813Z,0.40
2023-01-12T13:38:23.587Z,0.80
2023-01-12T13:40:56.156Z,0.43
2023-01-12T13:43:35.054Z,0.60
2023-01-12T13:46:14.872Z,0.50
2023-01-12T13:48:49.215Z,0.35
2023-01-12T13:51:34.354Z,0.40
2023-01-12T13:54:12.628Z,0.57
2023-01-12T13:56:42.539Z,0.50
2023-01-12T13:59:18.264Z,0.43
2023-01-12T14:01:47.741Z,0.43
2023-01-12T14:04:16.368Z,0.40
2023-01-12T14:07:12.581Z,0.60
2023-01-12T14:10:01.044Z,0.50
2023-01-12T14:12:53.234Z,0.40
2023-01-12T14:15:59.201Z,0.60
2023-01-12T14:18:29.030Z,0.70
2023-01-12T14:20:59.506Z,0.60
2023-01-12T14:23:33.693Z,0.60
2023-01-12T14:26:09.392Z,0.45
2023-01-12T14:28:42.542Z,0.50
2023-01-12T14:31:19.187Z,0.50
2023-01-12T14:33:51.814Z,0.50
2023-01-12T14:36:24.530Z,0.60
2023-01-12T14:38:52.347Z,0.40
2023-01-12T14:42:04.196Z,0.50
2023-01-12T14:44:51.727Z,0.47
2023-01-12T14:47:32.199Z,0.60
2023-01-12T14:50:12.489Z,0.52
2023-01-12T14:52:42.055Z,0.60
2023-01-12T14:55:14.917Z,0.40
2023-01-12T14:57:42.071Z,0.40
2023-01-12T15:00:22.833Z,0.40
2023-01-12T15:02:54.405Z,0.40
2023-01-12T15:05:27.093Z,0.50
2023-01-12T15:08:08.978Z,0.55
2023-01-12T15:10:42.973Z,0.40
2023-01-12T15:13:28.566Z,0.50
2023-01-12T15:16:15.679Z,0.60
2023-01-12T15:19:01.137Z,1.05
2023-01-12T15:21:47.513Z,0.60
2023-01-12T15:24:41.563Z,0.50
2023-01-12T15:27:09.346Z,0.30
2023-01-12T15:29:36.190Z,0.57
2023-01-12T15:32:05.426Z,0.60
2023-01-12T15:34:33.655Z,0.45
2023-01-12T15:37:00.348Z,0.40
2023-01-12T15:39:26.956Z,0.65
2023-01-12T15:42:13.091Z,0.60
2023-01-12T15:44:39.764Z,0.57
2023-01-12T15:47:07.786Z,0.57
2023-01-12T15:49:34.488Z,0.38
2023-01-12T15:52:01.212Z,0.57
2023-01-12T15:54:27.941Z,0.60
2023-01-12T15:56:54.567Z,0.40
2023-01-12T15:59:21.169Z,0.70
2023-01-12T16:01:49.313Z,0.43
2023-01-12T16:07:05.710Z,1.00
2023-01-12T16:09:32.301Z,0.80
2023-01-12T16:11:58.983Z,0.60
2023-01-12T16:14:25.601Z,1.00
2023-01-12T16:16:52.370Z,1.00
2023-01-12T16:19:22.410Z,0.70
2023-01-12T16:21:49.274Z,1.63
2023-01-12T16:24:15.923Z,0.82
2023-01-12T16:26:42.638Z,1.17
2023-01-12T16:29:09.259Z,0.75
2023-01-12T16:31:38.931Z,0.60
2023-01-12T16:34:06.060Z,0.80
2023-01-12T16:36:33.657Z,1.67
2023-01-12T16:39:00.290Z,1.88
2023-01-12T16:41:26.945Z,1.50
2023-01-12T16:43:54.537Z,1.20
2023-01-12T16:46:21.171Z,0.93
2023-01-12T16:48:48.216Z,1.00
2023-01-12T16:51:16.990Z,1.25
2023-01-12T16:53:44.478Z,0.80
2023-01-12T16:56:12.843Z,0.73
2023-01-12T16:58:41.920Z,0.90
2023-01-12T17:01:13.653Z,0.80
2023-01-12T17:03:41.749Z,1.20
2023-01-12T17:06:14.924Z,1.00
2023-01-12T17:08:42.476Z,1.10
2023-01-12T17:11:12.036Z,1.60
2023-01-12T17:16:11.886Z,1.85
2023-01-12T17:18:39.484Z,1.55
2023-01-12T17:21:09.376Z,1.05
2023-01-12T17:23:39.474Z,0.90
2023-01-12T17:26:07.423Z,0.52
2023-01-12T17:28:35.058Z,0.60
2023-01-12T17:31:13.858Z,0.50
2023-01-12T17:33:40.808Z,0.50
2023-01-12T17:36:09.942Z,0.68
2023-01-12T17:38:37.727Z,0.40
2023-01-12T17:41:35.237Z,0.60
2023-01-12T17:44:04.784Z,0.60
2023-01-12T17:46:32.155Z,0.68
2023-01-12T17:49:00.383Z,0.90
2023-01-12T17:51:27.505Z,0.80
2023-01-12T17:53:55.308Z,0.80
2023-01-12T17:56:22.261Z,0.90
2023-01-12T17:58:53.065Z,0.75
2023-01-12T18:01:22.604Z,0.82
2023-01-12T18:03:49.453Z,0.80
2023-01-12T18:06:25.741Z,1.00
2023-01-12T18:08:56.563Z,1.13
2023-01-12T18:11:23.933Z,0.90
2023-01-12T18:13:50.913Z,1.00
2023-01-12T18:16:17.916Z,1.08
2023-01-12T18:18:45.033Z,0.80
2023-01-12T18:21:14.699Z,0.80
2023-01-12T18:23:43.543Z,0.93
2023-01-12T18:26:13.510Z,0.73
2023-01-12T18:28:40.332Z,0.80
2023-01-12T18:31:09.755Z,0.70
2023-01-12T18:36:11.651Z,0.70
2023-01-12T18:38:45.171Z,0.80
2023-01-12T18:41:31.317Z,0.88
2023-01-12T18:44:00.609Z,0.60
2023-01-12T18:46:50.219Z,0.60
2023-01-12T18:49:24.224Z,0.80
2023-01-12T18:52:09.850Z,0.90
2023-01-12T18:54:47.517Z,0.80
2023-01-12T18:57:18.905Z,0.90
2023-01-12T18:59:50.711Z,0.80
2023-01-12T19:02:18.891Z,0.80
2023-01-12T19:05:10.279Z,0.70
2023-01-12T19:07:51.485Z,0.80
2023-01-12T19:10:18.445Z,0.90
2023-01-12T19:12:46.122Z,0.80
2023-01-12T19:15:31.769Z,0.80
2023-01-12T19:17:58.431Z,1.00
2023-01-12T19:20:29.282Z,0.70
2023-01-12T19:23:14.661Z,0.70
2023-01-12T19:25:59.790Z,0.60
2023-01-12T19:28:39.370Z,0.80
2023-01-12T19:31:11.487Z,1.08
2023-01-12T19:33:39.257Z,0.70
2023-01-12T19:36:08.420Z,0.70
2023-01-12T19:38:38.811Z,0.70
2023-01-12T19:41:12.766Z,0.70
2023-01-12T19:43:45.463Z,0.85
2023-01-12T19:46:15.562Z,0.63
2023-01-12T19:48:42.367Z,0.75
2023-01-12T19:51:11.046Z,0.60
2023-01-12T19:53:39.114Z,0.68
2023-01-12T19:56:10.535Z,0.70
2023-01-12T19:58:37.448Z,1.25
2023-01-12T20:01:04.194Z,0.60
2023-01-12T20:03:30.944Z,0.60
2023-01-12T20:06:17.861Z,0.60
2023-01-12T20:08:44.515Z,0.70
2023-01-12T20:11:11.257Z,0.77
2023-01-12T20:13:38.166Z,0.70
2023-01-12T20:16:09.693Z,0.60
2023-01-12T20:18:36.708Z,0.45
2023-01-12T20:21:08.328Z,0.70
2023-01-12T20:23:34.985Z,1.13
2023-01-12T20:26:01.853Z,0.98
2023-01-12T20:28:28.466Z,0.70
2023-01-12T20:30:55.104Z,0.50
2023-01-12T20:33:22.574Z,0.80
2023-01-12T20:35:50.486Z,0.82
2023-01-12T20:38:18.136Z,0.68
2023-01-12T20:40:45.687Z,0.80
2023-01-12T20:43:12.923Z,0.82
2023-01-12T20:45:41.856Z,0.80
2023-01-12T20:48:09.364Z,0.90
2023-01-12T20:50:36.964Z,0.70
2023-01-12T20:53:03.736Z,0.70
2023-01-12T20:55:30.537Z,0.52
2023-01-12T20:57:57.327Z,0.70
2023-01-12T21:00:24.320Z,0.80
2023-01-12T21:02:51.052Z,1.10
2023-01-12T21:05:17.901Z,1.00
2023-01-12T21:07:44.529Z,0.88
2023-01-12T21:10:12.109Z,0.63
2023-01-12T21:12:38.842Z,0.63
2023-01-12T21:15:06.184Z,0.70
2023-01-12T21:17:33.018Z,0.65
2023-01-12T21:19:59.803Z,0.50
2023-01-12T21:22:26.606Z,1.02
2023-01-12T21:24:53.481Z,0.77
2023-01-12T21:27:20.413Z,1.20
2023-01-12T21:29:47.796Z,0.95
2023-01-12T21:32:14.503Z,0.60
2023-01-12T21:34:41.216Z,0.80
2023-01-12T21:37:07.909Z,0.60
2023-01-12T21:39:34.657Z,0.55
2023-01-12T21:42:20.222Z,0.73
2023-01-12T21:44:46.879Z,0.60
2023-01-12T21:47:13.591Z,0.65
2023-01-12T21:49:40.255Z,0.57
2023-01-12T21:52:06.892Z,0.50
2023-01-12T21:54:33.588Z,0.50
2023-01-12T21:57:00.325Z,0.70
2023-01-12T21:59:26.995Z,0.50
2023-01-12T22:01:53.932Z,0.45
2023-01-12T22:04:20.888Z,0.50
2023-01-12T22:06:50.636Z,0.47
2023-01-12T22:09:17.397Z,0.88
2023-01-12T22:11:44.249Z,0.47
2023-01-12T22:14:11.328Z,0.60
2023-01-12T22:16:38.022Z,0.55
2023-01-12T22:19:04.695Z,0.50
2023-01-12T22:21:31.350Z,0.50
2023-01-12T22:23:58.120Z,0.60
2023-01-12T22:26:24.828Z,0.60
2023-01-12T22:28:51.484Z,0.50
2023-01-12T22:31:19.937Z,0.70
2023-01-12T22:34:07.184Z,0.50
2023-01-12T22:36:43.173Z,0.73
2023-01-12T22:39:13.504Z,0.60
2023-01-12T22:41:40.854Z,0.70
2023-01-12T22:44:07.586Z,0.50
2023-01-12T22:46:34.515Z,0.60
2023-01-12T22:49:01.234Z,0.70
2023-01-12T22:51:29.513Z,0.50
2023-01-12T22:53:56.697Z,0.50
2023-01-12T22:56:23.969Z,0.60
2023-01-12T22:58:52.691Z,0.50
2023-01-12T23:01:21.502Z,0.63
2023-01-12T23:03:48.813Z,0.80
2023-01-12T23:06:17.149Z,0.47
2023-01-12T23:08:44.891Z,0.65
2023-01-12T23:11:19.939Z,0.80
2023-01-12T23:13:47.227Z,0.82
2023-01-12T23:16:16.217Z,0.70
2023-01-12T23:18:45.271Z,0.63
2023-01-12T23:21:20.755Z,0.73
2023-01-12T23:23:50.152Z,0.50
2023-01-12T23:26:20.970Z,0.55
2023-01-12T23:28:50.445Z,0.40
2023-01-12T23:33:45.978Z,0.50
2023-01-12T23:36:18.446Z,0.50
2023-01-12T23:38:45.746Z,0.60
2023-01-12T23:41:18.419Z,0.60
2023-01-12T23:43:46.600Z,0.60
2023-01-12T23:46:14.050Z,0.60
2023-01-12T23:48:41.070Z,0.70
2023-01-12T23:51:07.670Z,0.60
2023-01-12T23:53:34.382Z,0.47
2023-01-12T23:56:07.317Z,0.60
2023-01-12T23:58:34.646Z,0.50
